sensor_id;sensor_type;location;lat;lon;timestamp;temperature;humidity
66568;DHT22;53422;49.296;6.900;2022-12-04T00:00:11;2.90;99.90
66568;DHT22;53422;49.296;6.900;2022-12-04T00:02:38;2.90;99.90
66568;DHT22;53422;49.296;6.900;2022-12-04T00:05:05;2.90;99.90
66568;DHT22;53422;49.296;6.900;2022-12-04T00:07:31;3.00;99.90
66568;DHT22;53422;49.296;6.900;2022-12-04T00:09:57;2.90;99.90
66568;DHT22;53422;49.296;6.900;2022-12-04T00:12:22;2.80;99.90
66568;DHT22;53422;49.296;6.900;2022-12-04T00:14:48;2.80;99.90
66568;DHT22;53422;49.296;6.900;2022-12-04T00:17:14;2.80;99.90
66568;DHT22;53422;49.296;6.900;2022-12-04T00:19:40;3.00;99.90
66568;DHT22;53422;49.296;6.900;2022-12-04T00:22:05;2.90;99.90
66568;DHT22;53422;49.296;6.900;2022-12-04T00:24:31;2.90;99.90
66568;DHT22;53422;49.296;6.900;2022-12-04T00:26:57;2.90;99.90
66568;DHT22;53422;49.296;6.900;2022-12-04T00:29:23;2.90;99.90
66568;DHT22;53422;49.296;6.900;2022-12-04T00:31:49;2.90;99.90
66568;DHT22;53422;49.296;6.900;2022-12-04T00:34:14;2.80;99.90
66568;DHT22;53422;49.296;6.900;2022-12-04T00:36:40;2.90;99.90
66568;DHT22;53422;49.296;6.900;2022-12-04T00:39:05;2.90;99.90
66568;DHT22;53422;49.296;6.900;2022-12-04T00:41:32;2.80;99.90
66568;DHT22;53422;49.296;6.900;2022-12-04T00:43:59;2.90;99.90
66568;DHT22;53422;49.296;6.900;2022-12-04T00:46:25;2.90;99.90
66568;DHT22;53422;49.296;6.900;2022-12-04T00:48:51;2.90;99.90
66568;DHT22;53422;49.296;6.900;2022-12-04T00:51:20;2.80;99.90
66568;DHT22;53422;49.296;6.900;2022-12-04T00:53:46;3.00;99.90
66568;DHT22;53422;49.296;6.900;2022-12-04T00:56:30;3.00;99.90
66568;DHT22;53422;49.296;6.900;2022-12-04T00:58:57;3.00;99.90
66568;DHT22;53422;49.296;6.900;2022-12-04T01:01:24;3.00;99.90
66568;DHT22;53422;49.296;6.900;2022-12-04T01:03:51;3.10;99.90
66568;DHT22;53422;49.296;6.900;2022-12-04T01:06:24;3.20;99.90
66568;DHT22;53422;49.296;6.900;2022-12-04T01:08:52;3.10;99.90
66568;DHT22;53422;49.296;6.900;2022-12-04T01:11:19;3.00;99.90
66568;DHT22;53422;49.296;6.900;2022-12-04T01:13:45;3.10;99.90
66568;DHT22;53422;49.296;6.900;2022-12-04T01:16:23;3.10;99.90
66568;DHT22;53422;49.296;6.900;2022-12-04T01:18:49;3.20;99.90
66568;DHT22;53422;49.296;6.900;2022-12-04T01:21:16;3.10;99.90
66568;DHT22;53422;49.296;6.900;2022-12-04T01:23:42;3.10;99.90
66568;DHT22;53422;49.296;6.900;2022-12-04T01:26:08;3.20;99.90
66568;DHT22;53422;49.296;6.900;2022-12-04T01:28:34;3.10;99.90
66568;DHT22;53422;49.296;6.900;2022-12-04T01:31:03;3.00;99.90
66568;DHT22;53422;49.296;6.900;2022-12-04T01:33:31;3.00;99.90
66568;DHT22;53422;49.296;6.900;2022-12-04T01:35:58;3.00;99.90
66568;DHT22;53422;49.296;6.900;2022-12-04T01:38:25;2.90;99.90
66568;DHT22;53422;49.296;6.900;2022-12-04T01:40:51;3.00;99.90
66568;DHT22;53422;49.296;6.900;2022-12-04T01:43:17;3.00;99.90
66568;DHT22;53422;49.296;6.900;2022-12-04T01:45:48;3.00;99.90
66568;DHT22;53422;49.296;6.900;2022-12-04T01:50:43;2.90;99.90
66568;DHT22;53422;49.296;6.900;2022-12-04T01:53:10;2.90;99.90
66568;DHT22;53422;49.296;6.900;2022-12-04T01:55:37;2.80;99.90
66568;DHT22;53422;49.296;6.900;2022-12-04T01:58:03;2.90;99.90
66568;DHT22;53422;49.296;6.900;2022-12-04T02:00:29;3.00;99.90
66568;DHT22;53422;49.296;6.900;2022-12-04T02:02:56;3.10;99.90
66568;DHT22;53422;49.296;6.900;2022-12-04T02:05:22;3.00;99.90
66568;DHT22;53422;49.296;6.900;2022-12-04T02:07:50;2.90;99.90
66568;DHT22;53422;49.296;6.900;2022-12-04T02:10:17;2.90;99.90
66568;DHT22;53422;49.296;6.900;2022-12-04T02:13:19;3.00;99.90
66568;DHT22;53422;49.296;6.900;2022-12-04T02:19:21;3.20;99.90
66568;DHT22;53422;49.296;6.900;2022-12-04T02:21:36;3.20;99.90
66568;DHT22;53422;49.296;6.900;2022-12-04T02:24:25;3.20;99.90
66568;DHT22;53422;49.296;6.900;2022-12-04T02:27:10;2.90;99.90
66568;DHT22;53422;49.296;6.900;2022-12-04T02:29:46;2.90;99.90
66568;DHT22;53422;49.296;6.900;2022-12-04T02:32:22;2.90;99.90
66568;DHT22;53422;49.296;6.900;2022-12-04T02:34:59;3.00;99.90
66568;DHT22;53422;49.296;6.900;2022-12-04T02:37:34;2.90;99.90
66568;DHT22;53422;49.296;6.900;2022-12-04T02:40:18;2.90;99.90
66568;DHT22;53422;49.296;6.900;2022-12-04T02:42:54;3.00;99.90
66568;DHT22;53422;49.296;6.900;2022-12-04T02:45:30;3.00;99.90
66568;DHT22;53422;49.296;6.900;2022-12-04T02:48:00;3.10;99.90
66568;DHT22;53422;49.296;6.900;2022-12-04T02:50:27;3.00;99.90
66568;DHT22;53422;49.296;6.900;2022-12-04T02:53:02;3.00;99.90
66568;DHT22;53422;49.296;6.900;2022-12-04T02:55:34;2.80;99.90
66568;DHT22;53422;49.296;6.900;2022-12-04T02:58:06;2.80;99.90
66568;DHT22;53422;49.296;6.900;2022-12-04T03:00:34;2.80;99.90
66568;DHT22;53422;49.296;6.900;2022-12-04T03:03:06;2.90;99.90
66568;DHT22;53422;49.296;6.900;2022-12-04T03:05:38;2.90;99.90
66568;DHT22;53422;49.296;6.900;2022-12-04T03:08:13;2.90;99.90
66568;DHT22;53422;49.296;6.900;2022-12-04T03:10:47;2.90;99.90
66568;DHT22;53422;49.296;6.900;2022-12-04T03:13:56;2.80;99.90
66568;DHT22;53422;49.296;6.900;2022-12-04T03:16:30;2.90;99.90
66568;DHT22;53422;49.296;6.900;2022-12-04T03:18:59;2.80;99.90
66568;DHT22;53422;49.296;6.900;2022-12-04T03:21:28;2.70;99.90
66568;DHT22;53422;49.296;6.900;2022-12-04T03:24:09;2.60;99.90
66568;DHT22;53422;49.296;6.900;2022-12-04T03:26:44;2.60;99.90
66568;DHT22;53422;49.296;6.900;2022-12-04T03:29:15;2.60;99.90
66568;DHT22;53422;49.296;6.900;2022-12-04T03:32:19;2.70;99.90
66568;DHT22;53422;49.296;6.900;2022-12-04T03:35:02;2.60;99.90
66568;DHT22;53422;49.296;6.900;2022-12-04T03:37:55;2.80;99.90
66568;DHT22;53422;49.296;6.900;2022-12-04T03:40:43;2.90;99.90
66568;DHT22;53422;49.296;6.900;2022-12-04T03:43:25;2.90;99.90
66568;DHT22;53422;49.296;6.900;2022-12-04T03:45:57;3.00;99.90
66568;DHT22;53422;49.296;6.900;2022-12-04T03:48:45;3.20;99.90
66568;DHT22;53422;49.296;6.900;2022-12-04T03:51:23;3.20;99.90
66568;DHT22;53422;49.296;6.900;2022-12-04T03:53:59;3.10;99.90
66568;DHT22;53422;49.296;6.900;2022-12-04T03:56:31;3.10;99.90
66568;DHT22;53422;49.296;6.900;2022-12-04T03:59:03;3.00;99.90
66568;DHT22;53422;49.296;6.900;2022-12-04T04:01:34;2.80;99.90
66568;DHT22;53422;49.296;6.900;2022-12-04T04:04:03;2.70;99.90
66568;DHT22;53422;49.296;6.900;2022-12-04T04:06:39;2.60;99.90
66568;DHT22;53422;49.296;6.900;2022-12-04T04:09:13;2.70;99.90
66568;DHT22;53422;49.296;6.900;2022-12-04T04:11:52;2.60;99.90
66568;DHT22;53422;49.296;6.900;2022-12-04T04:17:41;2.60;99.90
66568;DHT22;53422;49.296;6.900;2022-12-04T04:21:14;2.60;99.90
66568;DHT22;53422;49.296;6.900;2022-12-04T04:23:38;2.60;99.90
66568;DHT22;53422;49.296;6.900;2022-12-04T04:26:25;2.80;99.90
66568;DHT22;53422;49.296;6.900;2022-12-04T04:28:52;2.80;99.90
66568;DHT22;53422;49.296;6.900;2022-12-04T04:31:37;2.80;99.90
66568;DHT22;53422;49.296;6.900;2022-12-04T04:36:58;2.80;99.90
66568;DHT22;53422;49.296;6.900;2022-12-04T04:41:58;2.80;99.90
66568;DHT22;53422;49.296;6.900;2022-12-04T04:47:47;2.80;99.90
66568;DHT22;53422;49.296;6.900;2022-12-04T04:50:16;2.60;99.90
66568;DHT22;53422;49.296;6.900;2022-12-04T04:52:48;2.70;99.90
66568;DHT22;53422;49.296;6.900;2022-12-04T04:55:17;2.70;99.90
66568;DHT22;53422;49.296;6.900;2022-12-04T04:57:43;2.80;99.90
66568;DHT22;53422;49.296;6.900;2022-12-04T05:00:15;2.70;99.90
66568;DHT22;53422;49.296;6.900;2022-12-04T05:02:41;2.60;99.90
66568;DHT22;53422;49.296;6.900;2022-12-04T05:05:07;2.60;99.90
66568;DHT22;53422;49.296;6.900;2022-12-04T05:07:33;2.60;99.90
66568;DHT22;53422;49.296;6.900;2022-12-04T05:09:58;2.60;99.90
66568;DHT22;53422;49.296;6.900;2022-12-04T05:12:24;2.70;99.90
66568;DHT22;53422;49.296;6.900;2022-12-04T05:14:50;2.80;99.90
66568;DHT22;53422;49.296;6.900;2022-12-04T05:17:15;2.70;99.90
66568;DHT22;53422;49.296;6.900;2022-12-04T05:19:41;2.50;99.90
66568;DHT22;53422;49.296;6.900;2022-12-04T05:22:28;2.60;99.90
66568;DHT22;53422;49.296;6.900;2022-12-04T05:24:54;2.80;99.90
66568;DHT22;53422;49.296;6.900;2022-12-04T05:27:21;2.80;99.90
66568;DHT22;53422;49.296;6.900;2022-12-04T05:29:47;3.00;99.90
66568;DHT22;53422;49.296;6.900;2022-12-04T05:32:13;2.90;99.90
66568;DHT22;53422;49.296;6.900;2022-12-04T05:34:39;2.90;99.90
66568;DHT22;53422;49.296;6.900;2022-12-04T05:37:05;3.00;99.90
66568;DHT22;53422;49.296;6.900;2022-12-04T05:39:30;3.00;99.90
66568;DHT22;53422;49.296;6.900;2022-12-04T05:41:56;2.80;99.90
66568;DHT22;53422;49.296;6.900;2022-12-04T05:44:22;2.90;99.90
66568;DHT22;53422;49.296;6.900;2022-12-04T05:46:47;2.60;99.90
66568;DHT22;53422;49.296;6.900;2022-12-04T05:49:13;2.70;99.90
66568;DHT22;53422;49.296;6.900;2022-12-04T05:51:39;2.60;99.90
66568;DHT22;53422;49.296;6.900;2022-12-04T05:54:04;2.60;99.90
66568;DHT22;53422;49.296;6.900;2022-12-04T05:56:30;2.60;99.90
66568;DHT22;53422;49.296;6.900;2022-12-04T05:58:56;2.60;99.90
66568;DHT22;53422;49.296;6.900;2022-12-04T06:01:23;2.60;99.90
66568;DHT22;53422;49.296;6.900;2022-12-04T06:03:49;2.50;99.90
66568;DHT22;53422;49.296;6.900;2022-12-04T06:06:20;2.50;99.90
66568;DHT22;53422;49.296;6.900;2022-12-04T06:08:46;2.50;99.90
66568;DHT22;53422;49.296;6.900;2022-12-04T06:11:13;2.50;99.90
66568;DHT22;53422;49.296;6.900;2022-12-04T06:13:40;2.30;99.90
66568;DHT22;53422;49.296;6.900;2022-12-04T06:16:12;2.30;99.90
66568;DHT22;53422;49.296;6.900;2022-12-04T06:18:38;2.30;99.90
66568;DHT22;53422;49.296;6.900;2022-12-04T06:21:03;2.40;99.90
66568;DHT22;53422;49.296;6.900;2022-12-04T06:23:29;2.40;99.90
66568;DHT22;53422;49.296;6.900;2022-12-04T06:25:55;2.40;99.90
66568;DHT22;53422;49.296;6.900;2022-12-04T06:28:20;2.30;99.90
66568;DHT22;53422;49.296;6.900;2022-12-04T06:30:46;2.30;99.90
66568;DHT22;53422;49.296;6.900;2022-12-04T06:33:11;2.50;99.90
66568;DHT22;53422;49.296;6.900;2022-12-04T06:35:37;2.60;99.90
66568;DHT22;53422;49.296;6.900;2022-12-04T06:38:02;2.50;99.90
66568;DHT22;53422;49.296;6.900;2022-12-04T06:40:28;2.50;99.90
66568;DHT22;53422;49.296;6.900;2022-12-04T06:42:54;2.50;99.90
66568;DHT22;53422;49.296;6.900;2022-12-04T06:45:19;2.40;99.90
66568;DHT22;53422;49.296;6.900;2022-12-04T06:47:46;2.30;99.90
66568;DHT22;53422;49.296;6.900;2022-12-04T06:50:12;2.40;99.90
66568;DHT22;53422;49.296;6.900;2022-12-04T06:52:37;2.40;99.90
66568;DHT22;53422;49.296;6.900;2022-12-04T06:55:03;2.50;99.90
66568;DHT22;53422;49.296;6.900;2022-12-04T06:57:29;2.50;99.90
66568;DHT22;53422;49.296;6.900;2022-12-04T06:59:55;2.40;99.90
66568;DHT22;53422;49.296;6.900;2022-12-04T07:02:20;2.30;99.90
66568;DHT22;53422;49.296;6.900;2022-12-04T07:04:46;2.30;99.90
66568;DHT22;53422;49.296;6.900;2022-12-04T07:07:11;2.50;99.90
66568;DHT22;53422;49.296;6.900;2022-12-04T07:09:37;2.40;99.90
66568;DHT22;53422;49.296;6.900;2022-12-04T07:12:04;2.30;99.90
66568;DHT22;53422;49.296;6.900;2022-12-04T07:14:30;2.30;99.90
66568;DHT22;53422;49.296;6.900;2022-12-04T07:16:56;2.30;99.90
66568;DHT22;53422;49.296;6.900;2022-12-04T07:19:22;2.40;99.90
66568;DHT22;53422;49.296;6.900;2022-12-04T07:21:48;2.40;99.90
66568;DHT22;53422;49.296;6.900;2022-12-04T07:24:15;2.30;99.90
66568;DHT22;53422;49.296;6.900;2022-12-04T07:26:41;2.30;99.90
66568;DHT22;53422;49.296;6.900;2022-12-04T07:29:07;2.40;99.90
66568;DHT22;53422;49.296;6.900;2022-12-04T07:31:34;2.30;99.90
66568;DHT22;53422;49.296;6.900;2022-12-04T07:34:00;2.60;99.90
66568;DHT22;53422;49.296;6.900;2022-12-04T07:36:26;2.60;99.90
66568;DHT22;53422;49.296;6.900;2022-12-04T07:38:52;2.70;99.90
66568;DHT22;53422;49.296;6.900;2022-12-04T07:41:19;2.80;99.90
66568;DHT22;53422;49.296;6.900;2022-12-04T07:43:44;2.80;99.90
66568;DHT22;53422;49.296;6.900;2022-12-04T07:46:13;2.80;99.90
66568;DHT22;53422;49.296;6.900;2022-12-04T07:48:39;2.80;99.90
66568;DHT22;53422;49.296;6.900;2022-12-04T07:53:33;2.80;99.90
66568;DHT22;53422;49.296;6.900;2022-12-04T07:56:00;2.90;99.90
66568;DHT22;53422;49.296;6.900;2022-12-04T07:58:25;2.90;99.90
66568;DHT22;53422;49.296;6.900;2022-12-04T08:00:51;2.90;99.90
66568;DHT22;53422;49.296;6.900;2022-12-04T08:03:17;2.90;99.90
66568;DHT22;53422;49.296;6.900;2022-12-04T08:05:42;2.80;99.90
66568;DHT22;53422;49.296;6.900;2022-12-04T08:08:08;2.90;99.90
66568;DHT22;53422;49.296;6.900;2022-12-04T08:10:33;2.80;99.90
66568;DHT22;53422;49.296;6.900;2022-12-04T08:12:59;2.80;99.90
66568;DHT22;53422;49.296;6.900;2022-12-04T08:15:25;2.80;99.90
66568;DHT22;53422;49.296;6.900;2022-12-04T08:17:50;2.90;99.90
66568;DHT22;53422;49.296;6.900;2022-12-04T08:20:16;2.90;99.90
66568;DHT22;53422;49.296;6.900;2022-12-04T08:22:42;2.90;99.90
66568;DHT22;53422;49.296;6.900;2022-12-04T08:25:07;2.90;99.90
66568;DHT22;53422;49.296;6.900;2022-12-04T08:27:33;2.90;99.90
66568;DHT22;53422;49.296;6.900;2022-12-04T08:30:00;2.80;99.90
66568;DHT22;53422;49.296;6.900;2022-12-04T08:32:25;2.90;99.90
66568;DHT22;53422;49.296;6.900;2022-12-04T08:34:51;2.90;99.90
66568;DHT22;53422;49.296;6.900;2022-12-04T08:37:17;2.90;99.90
66568;DHT22;53422;49.296;6.900;2022-12-04T08:39:43;2.90;99.90
66568;DHT22;53422;49.296;6.900;2022-12-04T08:42:08;2.90;99.90
66568;DHT22;53422;49.296;6.900;2022-12-04T08:44:34;2.90;99.90
66568;DHT22;53422;49.296;6.900;2022-12-04T08:46:59;3.00;99.90
66568;DHT22;53422;49.296;6.900;2022-12-04T08:49:25;3.00;99.90
66568;DHT22;53422;49.296;6.900;2022-12-04T08:51:51;3.00;99.90
66568;DHT22;53422;49.296;6.900;2022-12-04T08:54:16;3.10;99.90
66568;DHT22;53422;49.296;6.900;2022-12-04T08:56:42;3.00;99.90
66568;DHT22;53422;49.296;6.900;2022-12-04T08:59:11;3.00;99.90
66568;DHT22;53422;49.296;6.900;2022-12-04T09:01:37;2.90;99.90
66568;DHT22;53422;49.296;6.900;2022-12-04T09:04:02;2.90;99.90
66568;DHT22;53422;49.296;6.900;2022-12-04T09:06:28;2.90;99.90
66568;DHT22;53422;49.296;6.900;2022-12-04T09:08:55;2.70;99.90
66568;DHT22;53422;49.296;6.900;2022-12-04T09:11:24;2.60;99.90
66568;DHT22;53422;49.296;6.900;2022-12-04T09:13:51;2.80;99.90
66568;DHT22;53422;49.296;6.900;2022-12-04T09:16:20;2.90;99.90
66568;DHT22;53422;49.296;6.900;2022-12-04T09:18:46;2.80;99.90
66568;DHT22;53422;49.296;6.900;2022-12-04T09:21:14;2.70;99.90
66568;DHT22;53422;49.296;6.900;2022-12-04T09:23:40;2.80;99.90
66568;DHT22;53422;49.296;6.900;2022-12-04T09:26:17;3.00;99.90
66568;DHT22;53422;49.296;6.900;2022-12-04T09:28:44;2.80;99.90
66568;DHT22;53422;49.296;6.900;2022-12-04T09:31:09;2.90;99.90
66568;DHT22;53422;49.296;6.900;2022-12-04T09:33:35;2.90;99.90
66568;DHT22;53422;49.296;6.900;2022-12-04T09:36:02;3.00;99.90
66568;DHT22;53422;49.296;6.900;2022-12-04T09:38:29;3.00;99.90
66568;DHT22;53422;49.296;6.900;2022-12-04T09:43:38;2.90;99.90
66568;DHT22;53422;49.296;6.900;2022-12-04T09:46:09;2.90;99.90
66568;DHT22;53422;49.296;6.900;2022-12-04T09:48:40;2.80;99.90
66568;DHT22;53422;49.296;6.900;2022-12-04T09:51:07;2.80;99.90
66568;DHT22;53422;49.296;6.900;2022-12-04T09:54:15;2.80;99.90
66568;DHT22;53422;49.296;6.900;2022-12-04T09:56:44;2.90;99.90
66568;DHT22;53422;49.296;6.900;2022-12-04T09:59:22;3.00;99.90
66568;DHT22;53422;49.296;6.900;2022-12-04T10:01:55;3.00;99.90
66568;DHT22;53422;49.296;6.900;2022-12-04T10:04:23;3.10;99.90
66568;DHT22;53422;49.296;6.900;2022-12-04T10:07:05;3.10;99.90
66568;DHT22;53422;49.296;6.900;2022-12-04T10:10:02;3.20;99.90
66568;DHT22;53422;49.296;6.900;2022-12-04T10:12:43;3.10;99.90
66568;DHT22;53422;49.296;6.900;2022-12-04T10:18:32;3.00;99.90
66568;DHT22;53422;49.296;6.900;2022-12-04T10:26:43;3.00;99.90
66568;DHT22;53422;49.296;6.900;2022-12-04T10:29:20;3.00;99.90
66568;DHT22;53422;49.296;6.900;2022-12-04T10:31:47;2.90;99.90
66568;DHT22;53422;49.296;6.900;2022-12-04T10:34:17;2.90;99.90
66568;DHT22;53422;49.296;6.900;2022-12-04T10:36:49;3.00;99.90
66568;DHT22;53422;49.296;6.900;2022-12-04T10:39:24;2.90;99.90
66568;DHT22;53422;49.296;6.900;2022-12-04T10:42:00;2.90;99.90
66568;DHT22;53422;49.296;6.900;2022-12-04T10:44:30;2.80;99.90
66568;DHT22;53422;49.296;6.900;2022-12-04T10:47:00;2.80;99.90
66568;DHT22;53422;49.296;6.900;2022-12-04T10:49:31;2.90;99.90
66568;DHT22;53422;49.296;6.900;2022-12-04T10:51:58;3.00;99.90
66568;DHT22;53422;49.296;6.900;2022-12-04T10:54:35;3.00;99.90
66568;DHT22;53422;49.296;6.900;2022-12-04T10:57:11;3.00;99.90
66568;DHT22;53422;49.296;6.900;2022-12-04T10:59:52;3.00;99.90
66568;DHT22;53422;49.296;6.900;2022-12-04T11:02:22;2.90;99.90
66568;DHT22;53422;49.296;6.900;2022-12-04T11:05:04;2.90;99.90
66568;DHT22;53422;49.296;6.900;2022-12-04T11:07:35;2.90;99.90
66568;DHT22;53422;49.296;6.900;2022-12-04T11:12:31;2.90;99.90
66568;DHT22;53422;49.296;6.900;2022-12-04T11:15:23;2.90;99.90
66568;DHT22;53422;49.296;6.900;2022-12-04T11:17:50;2.90;99.90
66568;DHT22;53422;49.296;6.900;2022-12-04T11:20:25;2.90;99.90
66568;DHT22;53422;49.296;6.900;2022-12-04T11:22:56;3.00;99.90
66568;DHT22;53422;49.296;6.900;2022-12-04T11:25:26;3.00;99.90
66568;DHT22;53422;49.296;6.900;2022-12-04T11:27:58;2.90;99.90
66568;DHT22;53422;49.296;6.900;2022-12-04T11:30:30;2.90;99.90
66568;DHT22;53422;49.296;6.900;2022-12-04T11:32:58;2.80;99.90
66568;DHT22;53422;49.296;6.900;2022-12-04T11:35:26;2.70;99.90
66568;DHT22;53422;49.296;6.900;2022-12-04T11:38:13;2.70;99.90
66568;DHT22;53422;49.296;6.900;2022-12-04T11:40:52;2.70;99.90
66568;DHT22;53422;49.296;6.900;2022-12-04T11:43:18;2.80;99.90
66568;DHT22;53422;49.296;6.900;2022-12-04T11:48:24;2.80;99.90
66568;DHT22;53422;49.296;6.900;2022-12-04T11:51:15;2.80;99.90
66568;DHT22;53422;49.296;6.900;2022-12-04T11:56:28;3.10;99.90
66568;DHT22;53422;49.296;6.900;2022-12-04T12:09:41;3.30;99.90
66568;DHT22;53422;49.296;6.900;2022-12-04T12:12:18;3.20;99.90
66568;DHT22;53422;49.296;6.900;2022-12-04T12:17:38;3.20;99.90
66568;DHT22;53422;49.296;6.900;2022-12-04T12:20:16;3.20;99.90
66568;DHT22;53422;49.296;6.900;2022-12-04T12:34:39;3.30;99.90
66568;DHT22;53422;49.296;6.900;2022-12-04T12:37:46;3.30;99.90
66568;DHT22;53422;49.296;6.900;2022-12-04T12:40:13;3.40;99.90
66568;DHT22;53422;49.296;6.900;2022-12-04T12:42:45;3.40;99.90
66568;DHT22;53422;49.296;6.900;2022-12-04T12:45:19;3.40;99.90
66568;DHT22;53422;49.296;6.900;2022-12-04T12:47:53;3.40;99.90
66568;DHT22;53422;49.296;6.900;2022-12-04T12:50:45;3.50;99.90
66568;DHT22;53422;49.296;6.900;2022-12-04T12:53:22;3.50;99.90
66568;DHT22;53422;49.296;6.900;2022-12-04T12:55:53;3.50;99.90
66568;DHT22;53422;49.296;6.900;2022-12-04T12:58:33;3.50;99.90
66568;DHT22;53422;49.296;6.900;2022-12-04T13:01:11;3.50;99.90
66568;DHT22;53422;49.296;6.900;2022-12-04T13:04:01;3.50;99.90
66568;DHT22;53422;49.296;6.900;2022-12-04T13:06:32;3.50;99.90
66568;DHT22;53422;49.296;6.900;2022-12-04T13:11:40;3.50;99.90
66568;DHT22;53422;49.296;6.900;2022-12-04T13:14:11;3.40;99.90
66568;DHT22;53422;49.296;6.900;2022-12-04T13:16:56;3.40;99.90
66568;DHT22;53422;49.296;6.900;2022-12-04T13:19:33;3.50;99.90
66568;DHT22;53422;49.296;6.900;2022-12-04T13:30:14;3.40;99.90
66568;DHT22;53422;49.296;6.900;2022-12-04T13:40:44;3.40;99.90
66568;DHT22;53422;49.296;6.900;2022-12-04T13:43:26;3.40;99.90
66568;DHT22;53422;49.296;6.900;2022-12-04T13:45:55;3.40;99.90
66568;DHT22;53422;49.296;6.900;2022-12-04T13:51:20;3.40;99.90
66568;DHT22;53422;49.296;6.900;2022-12-04T13:53:46;3.40;99.90
66568;DHT22;53422;49.296;6.900;2022-12-04T13:56:27;3.40;99.90
66568;DHT22;53422;49.296;6.900;2022-12-04T13:59:00;3.30;99.90
66568;DHT22;53422;49.296;6.900;2022-12-04T14:01:37;3.40;99.90
66568;DHT22;53422;49.296;6.900;2022-12-04T14:04:04;3.40;99.90
66568;DHT22;53422;49.296;6.900;2022-12-04T14:06:34;3.40;99.90
66568;DHT22;53422;49.296;6.900;2022-12-04T14:09:03;3.40;99.90
66568;DHT22;53422;49.296;6.900;2022-12-04T14:11:41;3.50;99.90
66568;DHT22;53422;49.296;6.900;2022-12-04T14:14:24;3.50;99.90
66568;DHT22;53422;49.296;6.900;2022-12-04T14:16:50;3.50;99.90
66568;DHT22;53422;49.296;6.900;2022-12-04T14:19:35;3.50;99.90
66568;DHT22;53422;49.296;6.900;2022-12-04T14:22:02;3.40;99.90
66568;DHT22;53422;49.296;6.900;2022-12-04T14:24:36;3.50;99.90
66568;DHT22;53422;49.296;6.900;2022-12-04T14:27:32;3.50;99.90
66568;DHT22;53422;49.296;6.900;2022-12-04T14:30:00;3.50;99.90
66568;DHT22;53422;49.296;6.900;2022-12-04T14:32:32;3.50;99.90
66568;DHT22;53422;49.296;6.900;2022-12-04T14:34:58;3.50;99.90
66568;DHT22;53422;49.296;6.900;2022-12-04T14:39:54;3.50;99.90
66568;DHT22;53422;49.296;6.900;2022-12-04T14:42:25;3.50;99.90
66568;DHT22;53422;49.296;6.900;2022-12-04T14:44:56;3.50;99.90
66568;DHT22;53422;49.296;6.900;2022-12-04T14:47:39;3.50;99.90
66568;DHT22;53422;49.296;6.900;2022-12-04T14:58:58;3.50;99.90
66568;DHT22;53422;49.296;6.900;2022-12-04T15:01:36;3.50;99.90
66568;DHT22;53422;49.296;6.900;2022-12-04T15:04:12;3.50;99.90
66568;DHT22;53422;49.296;6.900;2022-12-04T15:06:39;3.50;99.90
66568;DHT22;53422;49.296;6.900;2022-12-04T15:09:25;3.60;99.90
66568;DHT22;53422;49.296;6.900;2022-12-04T15:12:19;3.60;99.90
66568;DHT22;53422;49.296;6.900;2022-12-04T15:17:41;3.60;99.90
66568;DHT22;53422;49.296;6.900;2022-12-04T15:20:15;3.60;99.90
66568;DHT22;53422;49.296;6.900;2022-12-04T15:22:41;3.60;99.90
66568;DHT22;53422;49.296;6.900;2022-12-04T15:25:18;3.50;99.90
66568;DHT22;53422;49.296;6.900;2022-12-04T15:27:46;3.60;99.90
66568;DHT22;53422;49.296;6.900;2022-12-04T15:30:32;3.60;99.90
66568;DHT22;53422;49.296;6.900;2022-12-04T15:33:00;3.60;99.90
66568;DHT22;53422;49.296;6.900;2022-12-04T15:35:28;3.60;99.90
66568;DHT22;53422;49.296;6.900;2022-12-04T15:37:55;3.50;99.90
66568;DHT22;53422;49.296;6.900;2022-12-04T15:40:24;3.50;99.90
66568;DHT22;53422;49.296;6.900;2022-12-04T15:42:50;3.60;99.90
66568;DHT22;53422;49.296;6.900;2022-12-04T15:45:28;3.60;99.90
66568;DHT22;53422;49.296;6.900;2022-12-04T15:47:56;3.60;99.90
66568;DHT22;53422;49.296;6.900;2022-12-04T15:50:25;3.60;99.90
66568;DHT22;53422;49.296;6.900;2022-12-04T15:53:14;3.60;99.90
66568;DHT22;53422;49.296;6.900;2022-12-04T15:55:50;3.60;99.90
66568;DHT22;53422;49.296;6.900;2022-12-04T15:58:34;3.60;99.90
66568;DHT22;53422;49.296;6.900;2022-12-04T16:01:09;3.50;99.90
66568;DHT22;53422;49.296;6.900;2022-12-04T16:08:41;3.50;99.90
66568;DHT22;53422;49.296;6.900;2022-12-04T16:11:20;3.50;99.90
66568;DHT22;53422;49.296;6.900;2022-12-04T16:14:33;3.50;99.90
66568;DHT22;53422;49.296;6.900;2022-12-04T16:16:39;3.40;99.90
66568;DHT22;53422;49.296;6.900;2022-12-04T16:19:32;3.40;99.90
66568;DHT22;53422;49.296;6.900;2022-12-04T16:21:59;3.40;99.90
66568;DHT22;53422;49.296;6.900;2022-12-04T16:24:26;3.40;99.90
66568;DHT22;53422;49.296;6.900;2022-12-04T16:26:54;3.30;99.90
66568;DHT22;53422;49.296;6.900;2022-12-04T16:29:20;3.30;99.90
66568;DHT22;53422;49.296;6.900;2022-12-04T16:31:47;3.30;99.90
66568;DHT22;53422;49.296;6.900;2022-12-04T16:34:13;3.30;99.90
66568;DHT22;53422;49.296;6.900;2022-12-04T16:36:39;3.30;99.90
66568;DHT22;53422;49.296;6.900;2022-12-04T16:39:05;3.40;99.90
66568;DHT22;53422;49.296;6.900;2022-12-04T16:41:31;3.40;99.90
66568;DHT22;53422;49.296;6.900;2022-12-04T16:43:58;3.40;99.90
66568;DHT22;53422;49.296;6.900;2022-12-04T16:46:26;3.50;99.90
66568;DHT22;53422;49.296;6.900;2022-12-04T16:48:52;3.50;99.90
66568;DHT22;53422;49.296;6.900;2022-12-04T16:51:21;3.50;99.90
66568;DHT22;53422;49.296;6.900;2022-12-04T16:53:48;3.50;99.90
66568;DHT22;53422;49.296;6.900;2022-12-04T16:56:15;3.50;99.90
66568;DHT22;53422;49.296;6.900;2022-12-04T16:58:41;3.50;99.90
66568;DHT22;53422;49.296;6.900;2022-12-04T17:03:41;3.50;99.90
66568;DHT22;53422;49.296;6.900;2022-12-04T17:06:06;3.50;99.90
66568;DHT22;53422;49.296;6.900;2022-12-04T17:08:32;3.50;99.90
66568;DHT22;53422;49.296;6.900;2022-12-04T17:10:58;3.50;99.90
66568;DHT22;53422;49.296;6.900;2022-12-04T17:13:23;3.50;99.90
66568;DHT22;53422;49.296;6.900;2022-12-04T17:15:49;3.50;99.90
66568;DHT22;53422;49.296;6.900;2022-12-04T17:18:15;3.50;99.90
66568;DHT22;53422;49.296;6.900;2022-12-04T17:20:41;3.50;99.90
66568;DHT22;53422;49.296;6.900;2022-12-04T17:23:08;3.50;99.90
66568;DHT22;53422;49.296;6.900;2022-12-04T17:25:35;3.50;99.90
66568;DHT22;53422;49.296;6.900;2022-12-04T17:28:01;3.50;99.90
66568;DHT22;53422;49.296;6.900;2022-12-04T17:30:26;3.40;99.90
66568;DHT22;53422;49.296;6.900;2022-12-04T17:32:52;3.50;99.90
66568;DHT22;53422;49.296;6.900;2022-12-04T17:35:18;3.50;99.90
66568;DHT22;53422;49.296;6.900;2022-12-04T17:37:44;3.50;99.90
66568;DHT22;53422;49.296;6.900;2022-12-04T17:40:10;3.50;99.90
66568;DHT22;53422;49.296;6.900;2022-12-04T17:42:37;3.50;99.90
66568;DHT22;53422;49.296;6.900;2022-12-04T17:45:03;3.50;99.90
66568;DHT22;53422;49.296;6.900;2022-12-04T17:47:29;3.50;99.90
66568;DHT22;53422;49.296;6.900;2022-12-04T17:49:54;3.50;99.90
66568;DHT22;53422;49.296;6.900;2022-12-04T17:52:20;3.50;99.90
66568;DHT22;53422;49.296;6.900;2022-12-04T17:54:50;3.50;99.90